createdAt,value
2022-07-29T00:01:53.547Z,23.21
2022-07-29T00:04:21.610Z,23.05
2022-07-29T00:06:49.202Z,22.60
2022-07-29T00:09:16.512Z,22.35
2022-07-29T00:11:43.892Z,22.47
2022-07-29T00:14:11.197Z,22.39
2022-07-29T00:16:38.751Z,22.21
2022-07-29T00:19:06.061Z,21.93
2022-07-29T00:21:35.388Z,21.80
2022-07-29T00:24:02.627Z,22.05
2022-07-29T00:26:32.618Z,22.29
2022-07-29T00:29:31.809Z,22.80
2022-07-29T00:31:48.227Z,23.10
2022-07-29T00:34:34.322Z,23.05
2022-07-29T00:37:01.554Z,23.85
2022-07-29T00:39:28.840Z,23.87
2022-07-29T00:41:56.234Z,22.92
2022-07-29T00:44:23.508Z,22.70
2022-07-29T00:46:51.010Z,23.13
2022-07-29T00:49:18.475Z,23.31
2022-07-29T00:51:46.235Z,23.04
2022-07-29T00:54:14.161Z,23.31
2022-07-29T00:56:41.704Z,22.70
2022-07-29T00:59:08.963Z,23.21
2022-07-29T01:01:36.237Z,22.67
2022-07-29T01:04:03.861Z,22.57
2022-07-29T01:06:31.136Z,22.29
2022-07-29T01:08:59.552Z,22.16
2022-07-29T01:11:26.947Z,21.99
2022-07-29T01:13:54.580Z,21.87
2022-07-29T01:16:38.781Z,21.80
2022-07-29T01:19:34.287Z,22.04
2022-07-29T01:22:29.185Z,21.79
2022-07-29T01:25:33.991Z,21.46
2022-07-29T01:28:01.275Z,21.24
2022-07-29T01:30:33.537Z,21.15
2022-07-29T01:33:06.994Z,21.12
2022-07-29T01:35:42.008Z,21.02
2022-07-29T01:38:23.295Z,20.96
2022-07-29T01:40:54.532Z,21.08
2022-07-29T01:43:28.182Z,21.17
2022-07-29T01:46:02.793Z,20.89
2022-07-29T01:48:41.629Z,20.90
2022-07-29T01:51:21.363Z,21.16
2022-07-29T01:53:51.301Z,21.02
2022-07-29T01:56:20.916Z,20.84
2022-07-29T01:58:50.821Z,20.60
2022-07-29T02:01:19.871Z,20.46
2022-07-29T02:03:48.844Z,20.39
2022-07-29T02:06:20.372Z,20.35
2022-07-29T02:08:50.065Z,20.26
2022-07-29T02:11:17.864Z,20.21
2022-07-29T02:13:46.416Z,20.13
2022-07-29T02:16:16.215Z,20.12
2022-07-29T02:18:46.719Z,20.22
2022-07-29T02:21:16.486Z,20.23
2022-07-29T02:23:50.686Z,20.24
2022-07-29T02:26:21.368Z,20.33
2022-07-29T02:28:51.021Z,20.69
2022-07-29T02:31:20.571Z,20.41
2022-07-29T02:33:48.612Z,20.79
2022-07-29T02:36:17.500Z,20.94
2022-07-29T02:38:52.562Z,20.78
2022-07-29T02:41:21.690Z,20.98
2022-07-29T02:43:51.228Z,21.00
2022-07-29T02:46:29.477Z,20.83
2022-07-29T02:49:33.035Z,20.61
2022-07-29T02:52:03.794Z,20.46
2022-07-29T02:54:56.024Z,20.54
2022-07-29T02:57:34.061Z,20.35
2022-07-29T03:00:06.209Z,20.29
2022-07-29T03:02:45.888Z,20.51
2022-07-29T03:05:18.364Z,20.68
2022-07-29T03:07:50.699Z,20.39
2022-07-29T03:10:18.942Z,20.19
2022-07-29T03:12:47.133Z,20.26
2022-07-29T03:15:15.107Z,20.70
2022-07-29T03:17:43.937Z,21.04
2022-07-29T03:20:12.730Z,21.01
2022-07-29T03:22:44.628Z,20.82
2022-07-29T03:25:13.408Z,20.80
2022-07-29T03:27:41.076Z,20.77
2022-07-29T03:30:09.593Z,21.09
2022-07-29T03:32:37.443Z,21.06
2022-07-29T03:35:06.338Z,21.01
2022-07-29T03:37:34.511Z,20.98
2022-07-29T03:40:04.072Z,20.95
2022-07-29T03:42:34.521Z,20.67
2022-07-29T03:45:07.144Z,20.46
2022-07-29T03:47:50.822Z,20.37
2022-07-29T03:50:21.295Z,20.51
2022-07-29T03:52:49.494Z,21.05
2022-07-29T03:55:17.296Z,21.02
2022-07-29T03:57:46.665Z,20.71
2022-07-29T04:00:16.466Z,20.64
2022-07-29T04:02:49.344Z,20.41
2022-07-29T04:05:17.629Z,20.34
2022-07-29T04:07:49.006Z,20.32
2022-07-29T04:10:17.961Z,20.59
2022-07-29T04:12:57.566Z,20.70
2022-07-29T04:15:24.833Z,20.45
2022-07-29T04:17:52.118Z,20.71
2022-07-29T04:20:19.478Z,21.11
2022-07-29T04:22:46.724Z,21.39
2022-07-29T04:25:13.977Z,21.18
2022-07-29T04:28:01.111Z,20.73
2022-07-29T04:30:28.879Z,20.63
2022-07-29T04:32:56.344Z,20.73
2022-07-29T04:35:23.574Z,20.80
2022-07-29T04:37:52.081Z,20.94
2022-07-29T04:40:19.506Z,21.01
2022-07-29T04:42:47.884Z,20.96
2022-07-29T04:45:16.801Z,20.90
2022-07-29T04:47:50.046Z,21.02
2022-07-29T04:50:17.632Z,21.25
2022-07-29T04:52:45.159Z,21.18
2022-07-29T04:55:12.472Z,21.05
2022-07-29T04:57:39.795Z,21.09
2022-07-29T05:00:07.857Z,21.40
2022-07-29T05:02:35.164Z,21.54
2022-07-29T05:05:02.475Z,21.54
2022-07-29T05:07:29.690Z,21.69
2022-07-29T05:09:57.996Z,21.86
2022-07-29T05:12:25.943Z,22.19
2022-07-29T05:14:53.424Z,23.14
2022-07-29T05:17:20.682Z,23.81
2022-07-29T05:19:47.969Z,24.04
2022-07-29T05:22:15.190Z,24.29
2022-07-29T05:24:42.499Z,24.57
2022-07-29T05:27:10.373Z,24.65
2022-07-29T05:29:43.683Z,24.55
2022-07-29T05:32:13.369Z,24.15
2022-07-29T05:34:50.119Z,23.95
2022-07-29T05:37:21.815Z,23.75
2022-07-29T05:39:50.859Z,23.94
2022-07-29T05:42:27.899Z,24.49
2022-07-29T05:44:55.152Z,24.36
2022-07-29T05:47:22.937Z,24.20
2022-07-29T05:49:50.376Z,24.07
2022-07-29T05:52:17.629Z,24.30
2022-07-29T05:54:44.912Z,24.35
2022-07-29T05:57:19.786Z,23.96
2022-07-29T05:59:48.061Z,23.47
2022-07-29T06:02:16.001Z,23.29
2022-07-29T06:04:43.476Z,23.07
2022-07-29T06:07:11.083Z,23.34
2022-07-29T06:09:38.337Z,23.45
2022-07-29T06:12:05.918Z,23.49
2022-07-29T06:14:33.630Z,23.66
2022-07-29T06:17:00.877Z,23.67
2022-07-29T06:19:28.155Z,23.53
2022-07-29T06:21:55.535Z,23.88
2022-07-29T06:24:22.859Z,23.95
2022-07-29T06:26:50.170Z,24.03
2022-07-29T06:29:18.045Z,24.06
2022-07-29T06:31:45.455Z,24.07
2022-07-29T06:34:12.830Z,24.13
2022-07-29T06:36:41.151Z,24.18
2022-07-29T06:39:09.307Z,24.05
2022-07-29T06:41:38.863Z,24.28
2022-07-29T06:44:10.461Z,24.11
2022-07-29T06:46:39.064Z,24.48
2022-07-29T06:49:06.749Z,24.66
2022-07-29T06:51:34.905Z,25.03
2022-07-29T06:54:12.884Z,25.15
2022-07-29T06:56:42.594Z,25.53
2022-07-29T06:59:11.473Z,25.41
2022-07-29T07:01:41.176Z,25.42
2022-07-29T07:04:11.837Z,25.78
2022-07-29T07:06:39.994Z,25.91
2022-07-29T07:09:07.394Z,25.76
2022-07-29T07:11:35.291Z,25.75
2022-07-29T07:14:04.100Z,25.85
2022-07-29T07:16:42.127Z,25.73
2022-07-29T07:19:09.486Z,25.98
2022-07-29T07:21:36.745Z,26.11
2022-07-29T07:24:04.364Z,26.10
2022-07-29T07:26:31.785Z,26.37
2022-07-29T07:28:59.082Z,26.33
2022-07-29T07:31:26.385Z,26.39
2022-07-29T07:33:54.502Z,26.23
2022-07-29T07:36:22.147Z,26.47
2022-07-29T07:38:49.404Z,26.66
2022-07-29T07:41:16.740Z,26.76
2022-07-29T07:43:43.988Z,26.73
2022-07-29T07:46:11.295Z,26.78
2022-07-29T07:48:38.637Z,26.70
2022-07-29T07:51:05.948Z,26.85
2022-07-29T07:53:34.990Z,27.11
2022-07-29T07:56:11.386Z,27.17
2022-07-29T07:58:39.729Z,27.14
2022-07-29T08:01:07.700Z,27.20
2022-07-29T08:03:35.443Z,27.20
2022-07-29T08:06:04.325Z,27.34
2022-07-29T08:08:31.580Z,27.27
2022-07-29T08:11:01.212Z,27.47
2022-07-29T08:13:31.388Z,27.47
2022-07-29T08:16:01.290Z,27.58
2022-07-29T08:18:31.077Z,28.14
2022-07-29T08:20:59.189Z,27.88
2022-07-29T08:23:46.514Z,27.85
2022-07-29T08:26:17.279Z,28.23
2022-07-29T08:28:46.801Z,28.00
2022-07-29T08:31:14.854Z,27.90
2022-07-29T08:33:43.424Z,28.18
2022-07-29T08:36:10.867Z,28.61
2022-07-29T08:38:38.194Z,28.85
2022-07-29T08:41:05.633Z,28.68
2022-07-29T08:43:33.133Z,28.75
2022-07-29T08:46:01.472Z,28.60
2022-07-29T08:48:28.881Z,28.68
2022-07-29T08:50:57.481Z,28.74
2022-07-29T08:53:27.976Z,28.86
2022-07-29T08:55:56.111Z,28.86
2022-07-29T08:58:26.125Z,28.85
2022-07-29T09:00:55.979Z,28.90
2022-07-29T09:03:30.596Z,29.11
2022-07-29T09:06:02.329Z,29.17
2022-07-29T09:08:31.500Z,29.26
2022-07-29T09:10:59.431Z,29.29
2022-07-29T09:13:27.379Z,29.46
2022-07-29T09:15:54.976Z,29.50
2022-07-29T09:18:37.238Z,29.53
2022-07-29T09:21:24.881Z,29.50
2022-07-29T09:24:02.137Z,29.42
2022-07-29T09:26:31.852Z,29.72
2022-07-29T09:29:00.164Z,29.98
2022-07-29T09:31:36.210Z,30.05
2022-07-29T09:34:04.672Z,30.25
2022-07-29T09:36:32.055Z,30.10
2022-07-29T09:39:03.788Z,30.00
2022-07-29T09:41:54.602Z,29.87
2022-07-29T09:44:23.342Z,30.59
2022-07-29T09:47:08.145Z,30.84
2022-07-29T09:50:00.753Z,31.08
2022-07-29T09:52:29.689Z,31.15
2022-07-29T09:55:07.581Z,31.26
2022-07-29T09:57:34.905Z,31.25
2022-07-29T10:00:13.950Z,31.04
2022-07-29T10:02:44.908Z,31.55
2022-07-29T10:05:27.072Z,31.77
2022-07-29T10:08:04.630Z,31.42
2022-07-29T10:12:01.483Z,31.59
2022-07-29T10:14:30.648Z,31.83
2022-07-29T10:16:58.815Z,32.38
2022-07-29T10:19:26.277Z,32.29
2022-07-29T10:21:57.917Z,32.20
2022-07-29T10:24:29.287Z,32.46
2022-07-29T10:26:57.983Z,32.63
2022-07-29T10:29:52.234Z,32.52
2022-07-29T10:32:37.443Z,32.49
2022-07-29T10:35:13.436Z,32.55
2022-07-29T10:38:06.728Z,32.45
2022-07-29T10:41:08.904Z,32.72
2022-07-29T10:43:44.671Z,32.68
2022-07-29T10:46:15.527Z,32.56
2022-07-29T10:49:05.519Z,32.36
2022-07-29T10:51:57.806Z,33.03
2022-07-29T10:54:34.786Z,33.22
2022-07-29T10:57:14.497Z,32.67
2022-07-29T10:59:44.178Z,32.64
2022-07-29T11:02:42.699Z,33.36
2022-07-29T11:05:13.869Z,33.19
2022-07-29T11:08:21.218Z,33.35
2022-07-29T11:11:15.892Z,33.07
2022-07-29T11:13:44.829Z,33.28
2022-07-29T11:16:16.116Z,32.99
2022-07-29T11:19:11.533Z,33.45
2022-07-29T11:21:54.712Z,33.75
2022-07-29T11:24:33.361Z,33.67
2022-07-29T11:27:13.375Z,33.70
2022-07-29T11:29:58.503Z,33.68
2022-07-29T11:32:37.545Z,34.01
2022-07-29T11:35:36.986Z,33.72
2022-07-29T11:38:31.823Z,33.40
2022-07-29T11:41:30.115Z,33.81
2022-07-29T11:44:01.408Z,34.02
2022-07-29T11:46:53.868Z,33.85
2022-07-29T11:49:32.325Z,34.42
2022-07-29T11:54:57.866Z,34.41
2022-07-29T11:57:36.545Z,34.56
2022-07-29T12:03:04.079Z,34.61
2022-07-29T12:05:52.037Z,34.52
2022-07-29T12:07:02.431Z,34.53
2022-07-29T12:08:22.675Z,34.48
2022-07-29T12:10:51.659Z,34.73
2022-07-29T12:13:21.194Z,34.51
2022-07-29T12:15:59.993Z,34.60
2022-07-29T12:18:27.910Z,34.66
2022-07-29T12:21:05.665Z,34.22
2022-07-29T12:23:34.794Z,34.34
2022-07-29T12:26:11.133Z,34.28
2022-07-29T12:28:49.819Z,34.18
2022-07-29T12:31:41.887Z,34.19
2022-07-29T12:34:05.112Z,34.34
2022-07-29T12:36:33.428Z,33.94
2022-07-29T12:39:00.892Z,33.93
2022-07-29T12:41:31.575Z,34.29
2022-07-29T12:43:59.087Z,34.46
2022-07-29T12:46:26.529Z,33.90
2022-07-29T12:48:58.416Z,34.60
2022-07-29T12:51:34.517Z,34.64
2022-07-29T12:54:07.169Z,34.71
2022-07-29T12:56:43.564Z,35.12
2022-07-29T12:59:15.452Z,35.11
2022-07-29T13:01:44.291Z,35.15
2022-07-29T13:04:12.065Z,34.46
2022-07-29T13:06:45.894Z,34.71
2022-07-29T13:09:18.428Z,34.67
2022-07-29T13:11:48.741Z,34.58
2022-07-29T13:14:34.863Z,34.61
2022-07-29T13:17:06.278Z,34.20
2022-07-29T13:19:51.165Z,34.62
2022-07-29T13:22:20.552Z,34.50
2022-07-29T13:25:04.613Z,34.40
2022-07-29T13:27:34.648Z,33.88
2022-07-29T13:30:03.954Z,33.75
2022-07-29T13:32:31.736Z,33.25
2022-07-29T13:35:05.410Z,32.88
2022-07-29T13:37:36.915Z,32.97
2022-07-29T13:40:06.290Z,32.77
2022-07-29T13:42:34.246Z,32.71
2022-07-29T13:45:02.713Z,32.58
2022-07-29T13:47:32.529Z,32.83
2022-07-29T13:50:02.084Z,33.13
2022-07-29T13:52:29.866Z,33.40
2022-07-29T13:54:57.452Z,33.76
2022-07-29T13:57:25.136Z,33.59
2022-07-29T13:59:54.310Z,33.62
2022-07-29T14:02:25.293Z,34.20
2022-07-29T14:04:56.627Z,34.90
2022-07-29T14:07:24.304Z,34.74
2022-07-29T14:09:52.193Z,35.67
2022-07-29T14:12:20.229Z,35.91
2022-07-29T14:14:47.568Z,37.16
2022-07-29T14:17:15.776Z,38.10
2022-07-29T14:19:43.183Z,38.45
2022-07-29T14:22:11.008Z,38.61
2022-07-29T14:24:38.929Z,38.69
2022-07-29T14:27:07.715Z,38.51
2022-07-29T14:29:38.332Z,37.30
2022-07-29T14:32:08.041Z,36.11
2022-07-29T14:34:37.230Z,35.43
2022-07-29T14:37:06.578Z,34.77
2022-07-29T14:39:42.135Z,34.00
2022-07-29T14:42:12.438Z,33.61
2022-07-29T14:44:48.369Z,33.35
2022-07-29T14:47:15.886Z,32.90
2022-07-29T14:49:43.237Z,32.67
2022-07-29T14:52:13.941Z,32.35
2022-07-29T14:54:41.424Z,32.02
2022-07-29T14:57:08.687Z,31.90
2022-07-29T14:59:36.306Z,31.80
2022-07-29T15:02:04.042Z,31.70
2022-07-29T15:04:31.820Z,31.56
2022-07-29T15:06:59.136Z,31.34
2022-07-29T15:09:26.373Z,31.19
2022-07-29T15:12:31.678Z,31.12
2022-07-29T15:14:59.378Z,31.04
2022-07-29T15:17:26.721Z,30.91
2022-07-29T15:23:39.573Z,30.75
2022-07-29T15:26:09.147Z,30.46
2022-07-29T15:28:36.513Z,29.71
2022-07-29T15:31:04.883Z,28.91
2022-07-29T15:33:32.525Z,28.49
2022-07-29T15:35:59.938Z,28.25
2022-07-29T15:38:28.719Z,27.75
2022-07-29T15:40:57.379Z,27.27
2022-07-29T15:43:24.723Z,27.09
2022-07-29T15:46:12.855Z,26.96
2022-07-29T15:48:40.549Z,26.63
2022-07-29T15:51:07.818Z,26.42
2022-07-29T15:53:35.415Z,26.59
2022-07-29T15:56:03.038Z,26.23
2022-07-29T15:58:31.012Z,26.22
2022-07-29T16:00:58.801Z,26.10
2022-07-29T16:03:26.171Z,26.18
2022-07-29T16:05:53.380Z,26.08
2022-07-29T16:08:20.903Z,25.64
2022-07-29T16:10:48.171Z,25.15
2022-07-29T16:13:17.014Z,24.52
2022-07-29T16:15:46.331Z,23.79
2022-07-29T16:18:30.698Z,23.11
2022-07-29T16:20:58.487Z,22.45
2022-07-29T16:23:25.735Z,22.43
2022-07-29T16:26:01.199Z,23.21
2022-07-29T16:28:29.761Z,23.00
2022-07-29T16:30:57.452Z,22.91
2022-07-29T16:33:25.143Z,23.20
2022-07-29T16:35:52.796Z,23.28
2022-07-29T16:38:20.209Z,23.22
2022-07-29T16:40:47.621Z,23.25
2022-07-29T16:43:14.936Z,23.32
2022-07-29T16:45:45.899Z,23.39
2022-07-29T16:48:14.673Z,23.38
2022-07-29T16:50:43.278Z,23.59
2022-07-29T16:53:11.138Z,23.62
2022-07-29T16:55:38.661Z,23.47
2022-07-29T16:58:10.516Z,23.25
2022-07-29T17:00:38.484Z,23.24
2022-07-29T17:03:05.731Z,23.33
2022-07-29T17:05:50.308Z,23.29
2022-07-29T17:08:20.126Z,23.43
2022-07-29T17:10:47.614Z,23.59
2022-07-29T17:13:14.865Z,23.69
2022-07-29T17:15:45.197Z,23.84
2022-07-29T17:18:13.092Z,24.14
2022-07-29T17:20:42.042Z,24.29
2022-07-29T17:23:09.514Z,24.35
2022-07-29T17:25:36.743Z,24.18
2022-07-29T17:28:04.133Z,23.98
2022-07-29T17:30:31.335Z,24.20
2022-07-29T17:32:58.931Z,24.14
2022-07-29T17:35:44.599Z,24.20
2022-07-29T17:38:11.904Z,24.15
2022-07-29T17:40:39.176Z,24.03
2022-07-29T17:43:09.200Z,23.98
2022-07-29T17:45:49.901Z,23.84
2022-07-29T17:48:19.381Z,23.78
2022-07-29T17:50:47.942Z,23.89
2022-07-29T17:53:16.245Z,23.72
2022-07-29T17:55:45.707Z,23.51
2022-07-29T17:58:13.232Z,23.37
2022-07-29T18:00:41.025Z,23.39
2022-07-29T18:03:09.077Z,23.43
2022-07-29T18:05:36.731Z,23.30
2022-07-29T18:08:04.210Z,23.08
2022-07-29T18:10:31.524Z,23.07
2022-07-29T18:12:58.928Z,23.08
2022-07-29T18:15:26.419Z,23.05
2022-07-29T18:17:57.610Z,23.08
2022-07-29T18:20:26.424Z,23.09
2022-07-29T18:22:53.697Z,22.99
2022-07-29T18:25:21.002Z,22.88
2022-07-29T18:27:48.316Z,23.01
2022-07-29T18:30:16.130Z,23.02
2022-07-29T18:32:59.200Z,22.95
2022-07-29T18:35:31.666Z,22.91
2022-07-29T18:38:01.820Z,22.90
2022-07-29T18:40:30.200Z,22.88
2022-07-29T18:42:57.823Z,22.81
2022-07-29T18:45:28.643Z,22.71
2022-07-29T18:47:56.688Z,22.75
2022-07-29T18:50:29.415Z,22.75
2022-07-29T18:52:58.675Z,22.87
2022-07-29T18:55:26.624Z,22.82
2022-07-29T18:57:55.832Z,22.93
2022-07-29T19:00:25.286Z,23.00
2022-07-29T19:02:53.193Z,23.00
2022-07-29T19:05:21.065Z,22.97
2022-07-29T19:07:48.348Z,22.98
2022-07-29T19:10:15.604Z,22.92
2022-07-29T19:12:43.035Z,22.80
2022-07-29T19:15:10.802Z,22.72
2022-07-29T19:17:38.827Z,22.80
2022-07-29T19:20:07.649Z,22.86
2022-07-29T19:22:35.143Z,22.60
2022-07-29T19:25:02.497Z,22.60
2022-07-29T19:27:29.814Z,22.59
2022-07-29T19:29:59.387Z,22.70
2022-07-29T19:32:27.271Z,22.76
2022-07-29T19:35:13.231Z,22.64
2022-07-29T19:37:40.501Z,22.57
2022-07-29T19:40:08.200Z,22.58
2022-07-29T19:42:35.384Z,22.54
2022-07-29T19:45:02.677Z,22.45
2022-07-29T19:47:29.936Z,22.38
2022-07-29T19:49:57.235Z,22.39
2022-07-29T19:52:24.484Z,22.27
2022-07-29T19:54:51.864Z,22.19
2022-07-29T19:57:19.373Z,22.18
2022-07-29T19:59:46.609Z,22.24
2022-07-29T20:02:13.907Z,22.20
2022-07-29T20:04:42.902Z,22.19
2022-07-29T20:07:10.213Z,22.26
2022-07-29T20:09:39.986Z,22.21
2022-07-29T20:12:11.008Z,22.25
2022-07-29T20:14:38.452Z,22.21
2022-07-29T20:17:06.080Z,22.22
2022-07-29T20:19:33.373Z,22.21
2022-07-29T20:22:00.983Z,22.18
2022-07-29T20:24:28.331Z,22.11
2022-07-29T20:26:55.641Z,22.16
2022-07-29T20:29:22.992Z,22.07
2022-07-29T20:31:52.277Z,22.06
2022-07-29T20:34:24.188Z,21.96
2022-07-29T20:36:51.500Z,21.89
2022-07-29T20:39:20.993Z,21.86
2022-07-29T20:41:48.953Z,21.82
2022-07-29T20:44:18.793Z,21.82
2022-07-29T20:46:46.252Z,21.82
2022-07-29T20:49:13.561Z,21.91
2022-07-29T20:51:43.583Z,21.97
2022-07-29T20:54:11.845Z,21.93
2022-07-29T20:56:39.454Z,21.93
2022-07-29T20:59:06.875Z,21.95
2022-07-29T21:01:35.067Z,21.93
2022-07-29T21:04:03.085Z,22.01
2022-07-29T21:06:30.884Z,22.04
2022-07-29T21:08:59.660Z,22.06
2022-07-29T21:11:44.228Z,22.20
2022-07-29T21:14:23.163Z,22.20
2022-07-29T21:16:50.685Z,22.11
2022-07-29T21:19:17.911Z,22.16
2022-07-29T21:21:45.149Z,22.11
2022-07-29T21:24:12.475Z,22.16
2022-07-29T21:26:39.689Z,22.12
2022-07-29T21:29:06.937Z,22.12
2022-07-29T21:31:34.147Z,22.08
2022-07-29T21:34:01.386Z,21.99
2022-07-29T21:36:47.676Z,22.01
2022-07-29T21:39:15.859Z,21.88
2022-07-29T21:41:43.080Z,21.89
2022-07-29T21:44:10.326Z,21.86
2022-07-29T21:46:37.619Z,21.88
2022-07-29T21:49:05.018Z,21.81
2022-07-29T21:51:32.358Z,21.84
2022-07-29T21:53:59.651Z,21.74
2022-07-29T21:56:27.820Z,21.69
2022-07-29T21:58:56.107Z,21.54
2022-07-29T22:01:24.004Z,21.52
2022-07-29T22:03:51.432Z,21.55
2022-07-29T22:06:19.040Z,21.49
2022-07-29T22:08:46.310Z,21.56
2022-07-29T22:11:13.612Z,21.45
2022-07-29T22:13:40.836Z,21.43
2022-07-29T22:16:10.102Z,21.43
2022-07-29T22:18:37.400Z,21.40
2022-07-29T22:21:04.618Z,21.34
2022-07-29T22:23:31.832Z,21.34
2022-07-29T22:25:59.076Z,21.33
2022-07-29T22:28:26.279Z,21.32
2022-07-29T22:30:53.538Z,21.31
2022-07-29T22:33:20.851Z,21.28
2022-07-29T22:35:49.215Z,21.27
2022-07-29T22:38:17.748Z,21.21
2022-07-29T22:40:45.315Z,21.29
2022-07-29T22:43:12.878Z,21.25
2022-07-29T22:45:40.103Z,21.24
2022-07-29T22:48:07.436Z,21.22
2022-07-29T22:50:34.707Z,21.17
2022-07-29T22:53:01.907Z,21.22
2022-07-29T22:55:29.125Z,21.12
2022-07-29T22:57:56.374Z,21.21
2022-07-29T23:00:23.981Z,21.16
2022-07-29T23:02:51.193Z,21.16
2022-07-29T23:05:18.548Z,21.22
2022-07-29T23:07:45.833Z,21.23
2022-07-29T23:10:13.161Z,21.20
2022-07-29T23:12:40.386Z,21.25
2022-07-29T23:15:07.873Z,21.20
2022-07-29T23:17:36.050Z,21.16
2022-07-29T23:20:09.936Z,21.12
2022-07-29T23:22:37.171Z,21.06
2022-07-29T23:25:06.182Z,21.00
2022-07-29T23:27:33.629Z,20.98
2022-07-29T23:30:00.883Z,20.90
2022-07-29T23:32:28.165Z,20.85
2022-07-29T23:34:55.463Z,20.81
2022-07-29T23:37:22.924Z,20.74
2022-07-29T23:39:50.237Z,20.68
2022-07-29T23:42:17.519Z,20.57
2022-07-29T23:44:44.748Z,20.60
2022-07-29T23:47:11.959Z,20.61
2022-07-29T23:49:39.364Z,20.56
2022-07-29T23:52:06.760Z,20.54
2022-07-29T23:54:34.015Z,20.53
2022-07-29T23:57:01.486Z,20.52
2022-07-29T23:59:28.970Z,20.54
